Time;durP1;ratioP1;P1;durP2;ratioP2;P2;SDS_P1;SDS_P2;PMS_P1;PMS_P2;Temp;Humidity;BMP_temperature;BMP_pressure;BME280_temperature;BME280_humidity;BME280_pressure;Samples;Min_cycle;Max_cycle;Signal;HPM_P1;HPM_P2
2022/04/22 00:00:18;;;;;;;50.55;30.77;;;;;;;9.74;81.22;99413.34;5095074;28;20047;-71
2022/04/22 00:02:44;;;;;;;48.40;31.05;;;;;;;9.88;81.40;99395.56;5076619;28;20028;-71
2022/04/22 00:05:10;;;;;;;44.60;30.75;;;;;;;10.04;79.95;99393.84;5095075;28;20020;-71
2022/04/22 00:07:37;;;;;;;42.17;28.95;;;;;;;10.19;80.34;99378.53;5095187;28;20033;-71
2022/04/22 00:10:05;;;;;;;45.75;30.20;;;;;;;10.33;79.61;99380.28;5092731;28;20493;-71
2022/04/22 00:12:31;;;;;;;44.13;29.77;;;;;;;10.57;78.98;99393.69;5115413;28;20489;-71
2022/04/22 00:14:56;;;;;;;40.15;28.17;;;;;;;10.55;79.09;99375.59;5115183;28;20019;-71
2022/04/22 00:17:22;;;;;;;43.15;28.77;;;;;;;10.61;78.66;99365.84;5114776;28;20103;-71
2022/04/22 00:19:47;;;;;;;43.15;29.00;;;;;;;10.70;78.31;99363.81;5115117;28;20058;-72
2022/04/22 00:22:13;;;;;;;41.70;27.88;;;;;;;10.73;77.85;99356.75;5080618;28;20046;-71
2022/04/22 00:24:40;;;;;;;41.15;28.38;;;;;;;10.85;77.17;99370.81;5111063;28;20031;-71
2022/04/22 00:27:05;;;;;;;45.00;29.27;;;;;;;10.76;76.88;99351.28;5096425;28;20465;-71
2022/04/22 00:29:32;;;;;;;39.78;28.48;;;;;;;10.83;77.20;99361.94;5115012;28;20031;-71
2022/04/22 00:31:58;;;;;;;42.20;29.17;;;;;;;10.76;77.07;99347.66;5114630;28;20027;-71
2022/04/22 00:34:23;;;;;;;45.38;33.28;;;;;;;10.80;77.43;99341.06;5114666;28;20016;-71
2022/04/22 00:36:49;;;;;;;61.63;41.13;;;;;;;10.80;77.35;99327.06;5095950;28;20482;-72
2022/04/22 00:39:14;;;;;;;54.85;36.45;;;;;;;10.86;77.10;99316.50;5114149;28;20032;-71
2022/04/22 00:41:40;;;;;;;51.70;34.95;;;;;;;10.98;76.38;99328.91;5095695;28;20043;-71
2022/04/22 00:44:06;;;;;;;50.53;34.30;;;;;;;10.87;77.04;99322.91;5096261;28;20115;-71
2022/04/22 00:46:31;;;;;;;44.75;31.95;;;;;;;10.87;77.63;99329.31;5114546;28;20110;-71
2022/04/22 00:48:57;;;;;;;44.20;32.17;;;;;;;10.98;77.26;99338.16;5095782;28;20043;-71
2022/04/22 00:51:23;;;;;;;51.30;32.58;;;;;;;10.88;77.24;99328.16;5096003;28;20111;-71
2022/04/22 00:53:49;;;;;;;45.83;30.05;;;;;;;10.79;78.08;99333.00;5114437;28;20030;-71
2022/04/22 00:56:15;;;;;;;43.90;29.45;;;;;;;10.64;79.18;99335.22;5098199;28;20039;-71
2022/04/22 00:58:44;;;;;;;44.85;28.70;;;;;;;10.77;78.81;99352.94;5075594;28;20048;-71
2022/04/22 01:01:13;;;;;;;43.78;29.85;;;;;;;10.63;79.15;99322.41;5075640;28;20486;-71
2022/04/22 01:09:47;;;;;;;41.00;29.85;;;;;;;10.69;79.21;99323.03;5075673;28;20149;-71
2022/04/22 01:11:58;;;;;;;45.58;29.25;;;;;;;10.55;79.18;99344.84;5095479;28;20122;-71
2022/04/22 01:14:24;;;;;;;42.30;29.65;;;;;;;10.59;79.29;99349.44;5093934;28;20359;-71
2022/04/22 01:16:50;;;;;;;36.97;25.98;;;;;;;10.57;79.55;99370.50;5093772;28;20024;-71
2022/04/22 01:19:16;;;;;;;37.22;25.45;;;;;;;10.38;79.48;99357.75;5093602;28;20461;-71
2022/04/22 01:21:44;;;;;;;36.45;24.77;;;;;;;10.38;79.99;99357.75;5093266;28;20522;-71
2022/04/22 01:24:10;;;;;;;36.83;24.73;;;;;;;10.38;80.06;99347.34;5093245;28;20030;-71
2022/04/22 01:26:36;;;;;;;38.28;25.30;;;;;;;10.51;79.17;99358.69;5093535;28;20106;-71
2022/04/22 01:29:03;;;;;;;36.45;25.45;;;;;;;10.56;79.09;99354.88;5087369;28;21059;-71
2022/04/22 01:31:30;;;;;;;34.67;23.38;;;;;;;10.61;78.74;99351.88;5107666;28;20107;-70
2022/04/22 01:33:55;;;;;;;35.83;24.02;;;;;;;10.61;78.70;99358.28;5075003;28;20075;-71
2022/04/22 01:36:21;;;;;;;36.58;23.55;;;;;;;10.58;78.37;99353.38;5093349;28;20471;-71
2022/04/22 01:38:47;;;;;;;38.42;23.30;;;;;;;10.75;77.43;99377.63;5093219;28;20055;-71
2022/04/22 01:41:12;;;;;;;36.05;23.70;;;;;;;9.77;82.77;99367.97;5075132;28;20042;-71
2022/04/22 01:43:38;;;;;;;34.38;25.63;;;;;;;10.18;80.75;99348.94;5108523;28;20458;-70
2022/04/22 01:46:04;;;;;;;36.47;24.52;;;;;;;10.39;80.23;99342.59;5090881;28;20032;-70
2022/04/22 01:48:30;;;;;;;35.35;24.08;;;;;;;10.55;79.27;99330.84;5093147;28;20088;-71
2022/04/22 01:50:56;;;;;;;34.63;25.33;;;;;;;10.37;79.70;99317.75;5092350;28;20035;-70
2022/04/22 01:53:22;;;;;;;33.55;24.50;;;;;;;10.59;79.55;99331.81;5097833;28;20446;-71
2022/04/22 01:55:48;;;;;;;34.83;25.90;;;;;;;10.64;80.04;99340.03;5113279;28;20504;-70
2022/04/22 01:58:13;;;;;;;37.30;27.33;;;;;;;10.46;80.20;99345.69;5112928;28;20047;-70
2022/04/22 02:00:39;;;;;;;35.45;25.60;;;;;;;10.40;80.82;99319.06;5113362;28;20031;-70
2022/04/22 02:03:04;;;;;;;32.00;25.02;;;;;;;10.61;80.09;99315.50;5113216;28;20043;-70
2022/04/22 02:05:32;;;;;;;36.67;23.60;;;;;;;10.48;80.21;99311.81;5112968;28;20112;-70
2022/04/22 02:07:57;;;;;;;32.60;24.65;;;;;;;10.35;80.18;99294.91;5112910;28;20051;-70
2022/04/22 02:10:23;;;;;;;35.45;26.02;;;;;;;10.15;81.30;99296.50;5113023;28;20051;-71
2022/04/22 02:12:49;;;;;;;39.85;26.58;;;;;;;10.00;82.71;99288.69;5113135;28;20131;-71
2022/04/22 02:15:16;;;;;;;36.30;26.00;;;;;;;9.91;83.60;99289.56;5106917;28;20111;-70
2022/04/22 02:17:43;;;;;;;33.03;25.15;;;;;;;10.17;81.47;99288.59;5112528;28;20533;-71
2022/04/22 02:20:10;;;;;;;38.70;25.63;;;;;;;10.11;81.66;99287.97;5085221;28;20092;-71
2022/04/22 02:22:38;;;;;;;36.78;25.77;;;;;;;10.25;81.74;99320.47;5096065;28;20043;-71
2022/04/22 02:25:04;;;;;;;36.42;26.23;;;;;;;10.13;81.89;99289.63;5077718;28;20039;-70
2022/04/22 02:30:15;;;;;;;39.13;27.05;;;;;;;10.25;81.08;99292.50;5092296;28;20051;-71
2022/04/22 02:32:41;;;;;;;35.80;26.55;;;;;;;10.14;80.72;99269.72;5112062;28;20039;-70
2022/04/22 02:35:07;;;;;;;37.03;26.48;;;;;;;10.04;81.45;99292.47;5112575;28;20016;-71
2022/04/22 02:37:33;;;;;;;49.58;28.25;;;;;;;10.02;81.73;99305.94;5112359;28;20394;-73
2022/04/22 02:39:58;;;;;;;41.40;27.63;;;;;;;10.07;81.88;99311.34;5112198;28;20023;-73
2022/04/22 02:45:41;;;;;;;34.63;25.40;;;;;;;10.15;81.24;99304.06;5112338;28;20034;-73
2022/04/22 02:48:00;;;;;;;41.53;27.67;;;;;;;10.27;80.77;99306.16;5108974;28;20035;-73
2022/04/22 02:50:25;;;;;;;36.95;26.48;;;;;;;10.31;80.07;99301.53;5111077;28;20023;-72
2022/04/22 02:52:51;;;;;;;39.72;28.00;;;;;;;10.22;80.93;99312.75;5091738;28;20066;-73
2022/04/22 02:55:16;;;;;;;51.35;32.17;;;;;;;10.22;80.99;99316.34;5111181;28;20042;-73
2022/04/22 02:57:44;;;;;;;66.40;45.35;;;;;;;10.23;80.96;99308.81;5093495;28;20486;-73
2022/04/22 03:00:13;;;;;;;67.35;41.83;;;;;;;10.29;80.53;99304.66;5112209;28;20019;-73
2022/04/22 03:02:39;;;;;;;52.45;35.22;;;;;;;10.32;80.57;99311.53;5111543;28;20117;-73
2022/04/22 03:05:05;;;;;;;62.28;33.92;;;;;;;10.39;80.43;99315.44;5091620;28;20424;-73
2022/04/22 03:07:30;;;;;;;50.97;33.33;;;;;;;10.48;79.50;99309.03;5091940;28;20576;-73
2022/04/22 03:09:56;;;;;;;45.60;32.40;;;;;;;10.49;79.19;99297.47;5111523;28;20074;-73
2022/04/22 03:12:22;;;;;;;47.88;31.90;;;;;;;10.53;79.12;99301.25;5111774;28;20020;-73
2022/04/22 03:14:48;;;;;;;45.35;31.73;;;;;;;10.44;79.94;99294.88;5111907;28;20042;-73
2022/04/22 03:17:13;;;;;;;41.55;30.17;;;;;;;10.42;79.79;99274.00;5092725;28;20063;-73
2022/04/22 03:19:39;;;;;;;50.20;32.10;;;;;;;10.31;80.64;99279.97;5093244;28;20470;-73
2022/04/22 03:22:05;;;;;;;46.05;29.52;;;;;;;10.37;80.06;99288.97;5111884;28;20027;-72
2022/04/22 03:24:31;;;;;;;41.13;28.95;;;;;;;10.27;80.23;99294.97;5087082;28;20469;-73
2022/04/22 03:26:56;;;;;;;43.10;29.67;;;;;;;10.23;80.63;99306.81;5091464;28;20099;-73
2022/04/22 03:29:22;;;;;;;43.13;28.70;;;;;;;10.24;80.47;99302.84;5096991;28;20080;-73
2022/04/22 03:31:47;;;;;;;44.40;30.05;;;;;;;10.21;80.50;99306.34;5099888;28;20027;-73
2022/04/22 03:34:13;;;;;;;51.72;33.85;;;;;;;10.08;80.57;99307.38;5109067;28;20032;-73
2022/04/22 03:36:38;;;;;;;42.10;31.13;;;;;;;10.06;81.28;99306.91;5111743;28;20053;-73
2022/04/22 03:39:04;;;;;;;44.05;31.67;;;;;;;10.17;80.42;99302.59;5110678;28;20503;-73
2022/04/22 03:41:29;;;;;;;48.78;32.63;;;;;;;10.21;80.33;99309.13;5107370;28;20028;-73
2022/04/22 03:43:55;;;;;;;45.45;32.03;;;;;;;10.29;80.28;99307.44;5082571;28;20042;-73
2022/04/22 03:46:21;;;;;;;44.33;32.13;;;;;;;10.11;80.79;99292.72;5111548;28;20457;-73
2022/04/22 03:48:46;;;;;;;48.28;32.13;;;;;;;9.94;82.09;99294.47;5111278;28;20406;-73
2022/04/22 03:51:12;;;;;;;51.75;34.47;;;;;;;9.84;82.53;99294.81;5108531;28;20110;-73
2022/04/22 03:53:40;;;;;;;48.60;34.30;;;;;;;10.00;82.10;99313.81;5110862;28;20485;-73
2022/04/22 03:58:50;;;;;;;47.67;34.53;;;;;;;10.01;82.32;99329.44;5111347;28;20561;-73
2022/04/22 04:01:15;;;;;;;72.78;37.40;;;;;;;9.59;83.84;99330.88;5111607;28;20027;-74
2022/04/22 04:03:41;;;;;;;127.03;42.15;;;;;;;9.49;85.60;99334.00;5106266;28;20046;-74
2022/04/22 04:06:07;;;;;;;53.92;37.42;;;;;;;9.33;86.65;99336.50;5108849;28;20034;-74
2022/04/22 04:08:33;;;;;;;59.35;39.92;;;;;;;9.30;86.21;99351.94;5092540;28;20024;-72
2022/04/22 04:16:14;;;;;;;46.97;34.90;;;;;;;9.80;83.66;99330.19;5111445;28;20482;-73
2022/04/22 04:18:40;;;;;;;43.75;31.13;;;;;;;9.83;83.27;99337.88;5114383;28;20020;-74
2022/04/22 04:23:53;;;;;;;43.83;29.25;;;;;;;9.75;83.59;99364.69;5105168;28;20034;-72
2022/04/22 04:26:21;;;;;;;42.53;30.70;;;;;;;9.44;85.22;99376.06;5096263;28;20031;-74
2022/04/22 04:28:48;;;;;;;48.45;34.35;;;;;;;9.15;86.17;99375.59;5096160;28;20015;-74
2022/04/22 04:31:15;;;;;;;58.58;38.85;;;;;;;8.56;89.31;99363.66;5111311;28;20030;-74
2022/04/22 04:33:41;;;;;;;60.08;38.63;;;;;;;8.84;89.56;99357.00;5111284;28;20024;-73
2022/04/22 04:36:10;;;;;;;55.97;36.78;;;;;;;9.19;87.67;99354.25;5102260;28;20019;-72
2022/04/22 04:38:37;;;;;;;47.30;34.75;;;;;;;9.33;86.80;99342.91;5090781;28;20575;-72
2022/04/22 04:41:03;;;;;;;58.80;34.72;;;;;;;9.51;86.20;99351.25;5092616;28;20477;-73
2022/04/22 04:43:29;;;;;;;49.83;33.65;;;;;;;9.58;86.29;99346.00;5109638;28;20391;-73
2022/04/22 04:45:55;;;;;;;53.50;31.05;;;;;;;9.65;85.82;99329.56;5103006;28;20084;-72
2022/04/22 04:48:21;;;;;;;65.50;41.00;;;;;;;9.64;84.95;99318.72;5074254;28;20023;-72
2022/04/22 04:50:47;;;;;;;54.55;38.67;;;;;;;9.78;84.75;99343.66;5098189;28;20043;-71
2022/04/22 04:53:14;;;;;;;56.63;38.40;;;;;;;9.83;84.41;99352.69;5110145;28;20039;-73
2022/04/22 04:55:40;;;;;;;56.60;37.03;;;;;;;9.88;84.28;99374.00;5110176;28;20058;-73
2022/04/22 04:58:06;;;;;;;66.97;39.20;;;;;;;9.78;84.96;99369.59;5083037;28;20116;-73
2022/04/22 05:00:32;;;;;;;65.90;40.38;;;;;;;9.69;85.44;99378.00;5094061;28;20057;-73
2022/04/22 05:02:59;;;;;;;61.88;41.58;;;;;;;9.56;86.16;99381.81;5092162;28;20024;-73
2022/04/22 05:05:25;;;;;;;82.55;53.13;;;;;;;9.09;88.43;99372.13;5090798;28;20582;-74
2022/04/22 05:07:57;;;;;;;55.97;36.28;;;;;;;8.57;90.25;99361.72;5090580;28;20551;-73
2022/04/22 05:10:24;;;;;;;61.95;41.78;;;;;;;8.90;90.61;99358.50;5106953;28;20083;-72
2022/04/22 05:12:50;;;;;;;58.28;38.08;;;;;;;9.12;89.43;99363.09;5110788;28;20035;-71
2022/04/22 05:15:17;;;;;;;55.95;36.85;;;;;;;9.32;88.21;99374.78;5110410;28;20020;-70
2022/04/22 05:17:44;;;;;;;80.47;48.33;;;;;;;9.47;87.70;99367.03;5083707;28;20028;-71
2022/04/22 05:20:12;;;;;;;107.55;65.22;;;;;;;9.55;86.57;99372.59;5105524;28;20492;-72
2022/04/22 05:22:38;;;;;;;93.63;55.03;;;;;;;9.68;86.22;99376.38;5085671;28;20286;-75
2022/04/22 05:25:05;;;;;;;564.15;86.80;;;;;;;9.81;86.22;99384.88;5085015;28;20039;-75
2022/04/22 05:27:32;;;;;;;153.27;48.92;;;;;;;9.90;86.00;99376.47;5110063;28;20024;-74
2022/04/22 05:32:47;;;;;;;83.90;48.40;;;;;;;9.94;85.03;99377.44;5102235;28;20112;-74
2022/04/22 05:35:14;;;;;;;71.55;41.83;;;;;;;9.84;84.52;99375.84;5096553;28;20470;-73
2022/04/22 05:38:00;;;;;;;68.60;43.67;;;;;;;10.03;84.26;99374.66;5071246;28;20063;-73
2022/04/22 05:40:31;;;;;;;84.03;60.20;;;;;;;10.05;83.66;99363.94;5101242;28;20115;-73
2022/04/22 05:42:57;;;;;;;81.85;56.17;;;;;;;10.04;83.72;99374.28;5099421;28;20032;-72
2022/04/22 05:45:24;;;;;;;77.95;51.58;;;;;;;10.09;84.25;99373.28;5094599;28;20050;-71
2022/04/22 05:47:51;;;;;;;65.90;43.58;;;;;;;9.96;84.60;99381.56;5086107;28;20545;-71
2022/04/22 05:50:18;;;;;;;62.50;40.78;;;;;;;9.77;85.28;99384.72;5108619;28;20508;-70
2022/04/22 05:52:44;;;;;;;87.53;47.38;;;;;;;9.85;85.41;99391.44;5109696;28;20080;-71
2022/04/22 05:55:13;;;;;;;75.55;43.22;;;;;;;9.78;85.93;99379.97;5090237;28;20126;-73
2022/04/22 05:57:39;;;;;;;63.75;38.97;;;;;;;10.09;84.59;99368.53;5090840;28;20639;-70
2022/04/22 06:00:12;;;;;;;56.05;34.05;;;;;;;10.13;85.01;99382.66;5109704;28;20020;-71
2022/04/22 06:02:41;;;;;;;47.13;33.70;;;;;;;10.14;83.83;99387.09;5109549;28;20098;-72
2022/04/22 06:05:12;;;;;;;52.83;35.17;;;;;;;9.98;85.41;99392.41;5107873;28;20102;-71
2022/04/22 06:07:38;;;;;;;72.85;39.17;;;;;;;9.48;87.68;99388.22;5070894;28;20502;-73
2022/04/22 06:12:51;;;;;;;48.90;33.30;;;;;;;9.88;86.74;99353.66;5088400;28;20459;-73
2022/04/22 06:15:17;;;;;;;46.10;32.25;;;;;;;9.83;87.08;99354.66;5099949;28;20028;-74
2022/04/22 06:17:43;;;;;;;50.22;32.38;;;;;;;9.95;86.44;99348.34;5083386;28;20631;-72
2022/04/22 06:20:09;;;;;;;46.58;30.42;;;;;;;10.13;85.47;99360.28;5099348;28;20425;-72
2022/04/22 06:22:35;;;;;;;48.60;30.15;;;;;;;10.18;85.07;99359.28;5088645;28;20615;-73
2022/04/22 06:25:00;;;;;;;41.65;29.38;;;;;;;10.04;85.30;99356.72;5094947;28;20020;-73
2022/04/22 06:27:28;;;;;;;45.72;30.30;;;;;;;9.73;87.80;99304.72;5100478;28;20117;-71
2022/04/22 06:29:54;;;;;;;45.50;31.05;;;;;;;9.60;88.67;99276.66;5092661;28;20126;-71
2022/04/22 06:32:22;;;;;;;65.28;41.53;;;;;;;9.54;90.56;99230.56;5112244;28;20061;-71
2022/04/22 06:34:51;;;;;;;50.78;33.92;;;;;;;9.44;91.09;99228.13;5110300;28;20045;-69
2022/04/22 06:37:17;;;;;;;54.63;35.40;;;;;;;9.50;90.83;99268.66;5085564;28;20498;-70
2022/04/22 06:48:03;;;;;;;48.35;29.65;;;;;;;10.02;87.39;99311.53;5105620;28;20458;-70
2022/04/22 06:50:29;;;;;;;47.30;31.05;;;;;;;10.04;86.85;99303.63;5111112;28;20114;-71
2022/04/22 06:52:54;;;;;;;42.00;30.50;;;;;;;10.21;86.74;99286.75;5106977;28;20027;-73
2022/04/22 06:55:21;;;;;;;47.30;32.05;;;;;;;10.16;85.97;99286.97;5109612;28;20038;-70
2022/04/22 06:57:51;;;;;;;44.45;30.95;;;;;;;10.18;85.87;99284.66;5087564;28;20043;-70
2022/04/22 07:00:18;;;;;;;47.55;31.63;;;;;;;10.30;85.16;99272.72;5109958;28;20551;-70
2022/04/22 07:02:44;;;;;;;48.65;32.17;;;;;;;10.23;85.65;99269.66;5110462;28;20103;-69
2022/04/22 07:05:10;;;;;;;54.85;37.28;;;;;;;10.34;86.26;99275.69;5092103;28;20468;-69
2022/04/22 07:07:36;;;;;;;65.90;41.72;;;;;;;10.27;85.53;99275.41;5111378;28;20042;-69
2022/04/22 07:10:02;;;;;;;53.67;35.08;;;;;;;10.50;84.40;99279.56;5111288;28;20020;-70
2022/04/22 07:12:28;;;;;;;64.40;36.10;;;;;;;10.62;84.27;99292.00;5111448;28;20052;-70
2022/04/22 07:15:03;;;;;;;68.70;37.53;;;;;;;10.65;83.72;99282.91;5111938;28;20538;-69
2022/04/22 07:17:36;;;;;;;73.57;45.80;;;;;;;10.68;83.95;99290.63;5110312;28;20026;-69
2022/04/22 07:20:09;;;;;;;51.40;34.50;;;;;;;10.78;83.68;99290.22;5092339;28;20102;-70
2022/04/22 07:22:39;;;;;;;58.65;39.95;;;;;;;10.73;83.35;99287.59;5091851;28;20112;-69
2022/04/22 07:25:09;;;;;;;50.88;35.45;;;;;;;10.64;84.14;99270.09;5110043;28;20027;-69
2022/04/22 07:27:37;;;;;;;55.08;38.38;;;;;;;10.72;84.61;99285.97;5104255;28;20031;-69
2022/04/22 07:30:05;;;;;;;49.13;34.90;;;;;;;10.85;83.72;99286.88;5087894;28;20537;-69
2022/04/22 07:32:31;;;;;;;51.92;36.72;;;;;;;11.00;82.39;99288.25;5072964;28;20032;-73
2022/04/22 07:34:57;;;;;;;48.85;33.47;;;;;;;10.93;82.37;99297.19;5091467;28;20105;-69
2022/04/22 07:37:23;;;;;;;42.13;32.08;;;;;;;10.98;81.82;99298.97;5091333;28;20024;-69
2022/04/22 07:39:49;;;;;;;48.08;32.83;;;;;;;11.07;82.33;99293.28;5072973;28;20085;-69
2022/04/22 07:42:20;;;;;;;49.95;34.22;;;;;;;11.22;81.75;99294.63;5091235;28;20020;-69
2022/04/22 07:47:36;;;;;;;43.03;30.58;;;;;;;11.27;80.03;99279.59;5091218;28;20135;-69
2022/04/22 07:50:05;;;;;;;44.40;30.50;;;;;;;11.32;80.06;99268.19;5094706;28;20532;-70
2022/04/22 07:52:33;;;;;;;42.47;30.23;;;;;;;11.27;80.70;99260.81;5095053;28;20097;-69
2022/04/22 07:54:58;;;;;;;45.13;31.92;;;;;;;11.22;81.82;99270.25;5095078;28;20091;-69
2022/04/22 07:57:24;;;;;;;41.78;28.55;;;;;;;11.34;80.26;99271.47;5114310;28;20455;-69
2022/04/22 07:59:49;;;;;;;37.75;27.13;;;;;;;11.38;79.87;99276.03;5112855;28;20479;-70
2022/04/22 08:02:16;;;;;;;37.53;27.02;;;;;;;11.38;80.39;99270.41;5112601;28;20486;-69
2022/04/22 08:04:41;;;;;;;38.95;27.35;;;;;;;11.45;80.32;99264.25;5096674;28;20069;-69
2022/04/22 08:07:08;;;;;;;38.35;26.10;;;;;;;11.74;78.59;99258.84;5115111;28;20027;-70
2022/04/22 08:09:34;;;;;;;39.50;27.77;;;;;;;12.03;78.92;99252.22;5115014;28;20026;-70
2022/04/22 08:12:00;;;;;;;38.63;27.85;;;;;;;12.14;78.99;99260.97;5096817;28;20027;-72
2022/04/22 08:14:27;;;;;;;37.75;27.02;;;;;;;12.25;76.69;99238.91;5114973;28;20016;-70
2022/04/22 08:16:56;;;;;;;42.47;27.38;;;;;;;12.49;78.09;99235.22;5115138;28;20050;-70
2022/04/22 08:19:21;;;;;;;41.53;27.83;;;;;;;12.69;77.26;99234.59;5114831;28;20578;-70
2022/04/22 08:21:47;;;;;;;42.45;28.08;;;;;;;12.97;75.75;99247.81;5115169;28;20020;-70
2022/04/22 08:24:13;;;;;;;38.25;25.08;;;;;;;13.09;74.70;99241.38;5114754;28;20034;-70
2022/04/22 08:26:39;;;;;;;35.33;24.45;;;;;;;13.13;74.49;99233.84;5096368;28;20019;-70
2022/04/22 08:29:05;;;;;;;36.60;26.00;;;;;;;13.18;75.02;99230.78;5114644;28;20484;-70
2022/04/22 08:31:30;;;;;;;37.20;27.23;;;;;;;13.37;76.92;99212.41;5114755;28;20019;-69
2022/04/22 08:33:57;;;;;;;34.90;26.23;;;;;;;13.57;75.71;99231.06;5096309;28;20066;-70
2022/04/22 08:36:29;;;;;;;33.95;26.48;;;;;;;13.74;74.43;99221.47;5114570;28;20015;-69
2022/04/22 08:38:57;;;;;;;31.48;25.08;;;;;;;13.87;72.12;99212.94;5093273;28;20051;-70
2022/04/22 08:41:22;;;;;;;33.65;24.73;;;;;;;14.13;74.41;99198.31;5114346;28;20107;-70
2022/04/22 08:43:51;;;;;;;32.70;21.20;;;;;;;14.21;72.10;99202.09;5096033;28;20019;-70
2022/04/22 08:52:02;;;;;;;26.08;19.42;;;;;;;14.37;71.66;99188.00;5109359;28;20101;-70
2022/04/22 08:54:29;;;;;;;28.98;19.67;;;;;;;14.28;72.01;99193.00;5114338;28;20463;-70
2022/04/22 08:56:55;;;;;;;28.67;18.55;;;;;;;14.03;71.42;99187.63;5114182;28;20426;-70
2022/04/22 08:59:20;;;;;;;20.88;15.80;;;;;;;13.88;71.36;99187.28;5113598;28;20126;-70
2022/04/22 09:01:46;;;;;;;22.17;15.35;;;;;;;13.79;70.99;99189.47;5113816;28;20059;-69
2022/04/22 09:04:12;;;;;;;21.17;16.40;;;;;;;13.80;71.40;99193.06;5113916;28;20031;-69
2022/04/22 09:06:37;;;;;;;22.30;17.10;;;;;;;13.73;71.45;99186.09;5095814;28;20032;-70
2022/04/22 09:09:04;;;;;;;18.45;15.27;;;;;;;13.70;70.88;99181.22;5114118;28;20023;-69
2022/04/22 09:11:30;;;;;;;26.27;18.45;;;;;;;13.54;72.93;99181.22;5113990;28;20134;-69
2022/04/22 09:14:00;;;;;;;24.30;17.73;;;;;;;13.61;72.54;99178.56;5095655;28;20032;-70
2022/04/22 09:16:26;;;;;;;23.58;16.52;;;;;;;13.70;72.46;99181.22;5113276;28;20026;-69
2022/04/22 09:19:00;;;;;;;20.02;16.38;;;;;;;13.63;72.18;99178.22;5106807;28;20502;-69
2022/04/22 09:21:26;;;;;;;22.73;17.98;;;;;;;13.90;72.81;99175.66;5103142;28;20394;-75
2022/04/22 09:23:53;;;;;;;26.45;18.38;;;;;;;13.90;72.48;99170.84;5112128;28;20028;-73
2022/04/22 09:26:22;;;;;;;21.35;17.70;;;;;;;14.02;72.96;99167.09;5106543;28;20028;-69
2022/04/22 09:29:00;;;;;;;26.65;18.70;;;;;;;14.10;72.91;99153.22;5109188;28;20028;-71
2022/04/22 09:31:27;;;;;;;23.33;17.73;;;;;;;14.04;72.02;99147.06;5093073;28;20031;-74
2022/04/22 09:33:53;;;;;;;23.88;18.23;;;;;;;13.90;72.46;99142.75;5110817;28;20046;-70
2022/04/22 09:45:07;;;;;;;32.65;22.40;;;;;;;14.44;71.19;99117.00;5112342;28;20417;-73
2022/04/22 09:47:35;;;;;;;27.10;21.08;;;;;;;14.62;71.82;99110.91;5094862;28;20030;-69
2022/04/22 09:50:05;;;;;;;36.20;22.10;;;;;;;15.10;70.34;99103.00;5113281;28;20027;-71
2022/04/22 09:52:34;;;;;;;24.52;17.90;;;;;;;15.33;68.08;99105.00;5113354;28;20555;-70
2022/04/22 09:55:07;;;;;;;20.73;17.92;;;;;;;15.53;68.64;99091.66;5094491;28;20015;-71
2022/04/22 09:57:54;;;;;;;19.88;17.08;;;;;;;15.97;67.54;99081.84;5107918;28;20043;-70
2022/04/22 10:00:24;;;;;;;21.65;16.98;;;;;;;16.08;67.47;99086.84;5105843;28;20032;-70
2022/04/22 10:02:51;;;;;;;21.02;17.35;;;;;;;15.98;66.21;99085.50;5093822;28;20019;-69
2022/04/22 10:05:19;;;;;;;30.45;18.50;;;;;;;16.28;68.62;99079.03;5105314;28;20089;-69
2022/04/22 10:07:47;;;;;;;19.25;16.33;;;;;;;16.56;66.91;99081.41;5083219;28;20047;-69
2022/04/22 10:10:14;;;;;;;21.45;16.67;;;;;;;16.72;63.60;99073.91;5089121;28;20763;-69
2022/04/22 10:12:42;;;;;;;19.15;17.05;;;;;;;16.55;67.25;99070.50;5108056;28;20088;-69
2022/04/22 10:15:09;;;;;;;19.15;14.57;;;;;;;16.33;63.31;99072.25;5110172;28;20027;-69
2022/04/22 10:17:38;;;;;;;20.73;17.17;;;;;;;16.36;66.27;99058.19;5103885;28;20023;-69
2022/04/22 10:20:07;;;;;;;19.77;15.65;;;;;;;16.50;66.13;99062.38;5109955;28;20123;-69
2022/04/22 10:22:34;;;;;;;19.23;15.75;;;;;;;16.67;65.22;99060.94;5092867;28;20031;-69
2022/04/22 10:25:07;;;;;;;16.17;14.20;;;;;;;16.73;63.89;99058.59;5088406;28;20432;-69
2022/04/22 10:27:37;;;;;;;19.40;15.35;;;;;;;16.74;61.86;99057.38;5107035;28;20073;-69
2022/04/22 10:30:08;;;;;;;;;;;;;;;16.89;64.27;99050.69;5091286;28;20027;-69
2022/04/22 10:32:35;;;;;;;22.40;14.40;;;;;;;17.09;62.65;99053.31;5075742;28;19959;-69
2022/04/22 10:37:34;;;;;;;17.27;15.30;;;;;;;16.94;64.58;99041.88;5313667;22;20081;-69
2022/04/22 10:40:02;;;;;;;17.35;13.88;;;;;;;16.94;65.03;99041.03;4990630;28;20038;-69
2022/04/22 10:42:33;;;;;;;16.98;14.48;;;;;;;17.24;62.34;99043.75;4989985;28;20033;-69
2022/04/22 10:47:52;;;;;;;15.98;12.77;;;;;;;17.40;62.42;99031.38;4960193;28;20050;-69
2022/04/22 10:50:39;;;;;;;14.80;13.25;;;;;;;17.54;64.91;99022.19;4991910;28;20023;-69
2022/04/22 10:53:23;;;;;;;15.80;12.52;;;;;;;17.17;61.90;99015.47;4976477;28;20080;-69
2022/04/22 10:55:49;;;;;;;17.45;12.60;;;;;;;17.25;63.08;99005.03;4987005;28;20014;-69
2022/04/22 10:58:14;;;;;;;19.48;14.13;;;;;;;17.43;64.16;99016.47;4982297;28;20065;-69
2022/04/22 11:00:42;;;;;;;17.20;12.40;;;;;;;17.25;63.66;99003.03;4980345;28;20109;-69
2022/04/22 11:03:20;;;;;;;15.68;13.98;;;;;;;17.38;63.16;99000.69;4990911;28;20022;-69
2022/04/22 11:05:47;;;;;;;18.73;14.57;;;;;;;17.37;61.87;99012.38;4973083;28;20456;-69
2022/04/22 11:08:29;;;;;;;21.92;14.45;;;;;;;17.13;62.86;99006.13;4991335;28;20034;-69
2022/04/22 11:10:54;;;;;;;17.33;13.90;;;;;;;17.19;63.48;98990.44;4973705;28;20026;-69
2022/04/22 11:13:30;;;;;;;14.63;13.23;;;;;;;17.36;61.43;99000.25;4991475;28;20038;-69
2022/04/22 11:16:17;;;;;;;15.52;12.80;;;;;;;17.67;61.49;99008.53;4989503;28;20038;-69
2022/04/22 11:18:44;;;;;;;15.43;13.13;;;;;;;17.85;60.89;98985.19;4982252;28;20478;-69
2022/04/22 11:21:15;;;;;;;15.98;13.45;;;;;;;17.86;60.93;98983.97;4985967;28;20488;-69
2022/04/22 11:23:46;;;;;;;18.38;13.95;;;;;;;18.09;59.17;98983.72;4991518;28;20112;-70
2022/04/22 11:26:16;;;;;;;16.75;12.32;;;;;;;18.10;60.02;98974.84;4973749;28;20026;-70
2022/04/22 11:28:47;;;;;;;20.70;13.10;;;;;;;18.36;57.25;98963.59;4974268;28;20038;-67
2022/04/22 11:31:14;;;;;;;16.88;13.48;;;;;;;18.22;58.10;98967.19;4978948;28;20048;-67
2022/04/22 11:33:53;;;;;;;18.70;12.85;;;;;;;18.14;57.79;98966.34;4970511;28;20030;-69
2022/04/22 11:36:19;;;;;;;19.02;14.70;;;;;;;18.10;59.92;98943.72;4997408;28;20042;-67
2022/04/22 11:38:53;;;;;;;15.95;14.23;;;;;;;18.20;59.15;98939.28;5011225;28;20049;-66
2022/04/22 11:41:19;;;;;;;20.83;12.27;;;;;;;18.62;56.74;98939.78;4991085;28;20049;-67
2022/04/22 11:43:46;;;;;;;16.40;14.18;;;;;;;18.90;57.82;98934.53;5000883;28;20408;-68
2022/04/22 11:46:13;;;;;;;17.67;13.07;;;;;;;18.64;58.19;98916.69;4995550;28;20044;-67
2022/04/22 11:48:50;;;;;;;20.33;15.13;;;;;;;19.04;56.98;98928.06;4998914;28;20046;-69
2022/04/22 11:51:18;;;;;;;20.30;12.95;;;;;;;19.21;55.04;98915.91;4999689;28;20137;-68
2022/04/22 11:53:52;;;;;;;14.40;12.80;;;;;;;19.46;57.07;98915.03;5002471;28;20030;-65
2022/04/22 11:56:20;;;;;;;17.42;12.35;;;;;;;19.12;57.38;98901.34;5011036;28;20492;-66
2022/04/22 11:58:50;;;;;;;18.27;12.10;;;;;;;19.10;57.48;98898.09;5006675;28;20034;-66
2022/04/22 12:06:44;;;;;;;14.98;10.30;;;;;;;19.02;58.11;98890.81;5014682;28;20380;-64
2022/04/22 12:09:09;;;;;;;14.10;11.23;;;;;;;19.08;58.06;98889.22;5014606;28;20488;-67
2022/04/22 12:11:42;;;;;;;13.02;10.55;;;;;;;19.21;58.03;98884.72;5009564;28;20026;-66
2022/04/22 12:14:09;;;;;;;19.17;10.73;;;;;;;19.37;56.59;98883.47;4988598;28;20084;-65
2022/04/22 12:16:35;;;;;;;13.13;10.25;;;;;;;19.21;57.41;98872.56;5014368;28;20487;-66
2022/04/22 12:19:00;;;;;;;17.98;10.85;;;;;;;19.58;56.74;98856.25;5014209;28;20026;-66
2022/04/22 12:21:32;;;;;;;12.15;10.80;;;;;;;19.47;58.10;98871.28;4992409;28;20132;-68
2022/04/22 12:24:04;;;;;;;21.55;12.85;;;;;;;19.54;58.92;98855.44;4993750;28;20033;-65